createdAt,value
2023-02-03T00:00:00.000Z,6.49
2023-02-03T00:15:00.000Z,6.53
2023-02-03T00:30:00.000Z,6.65
2023-02-03T00:45:00.000Z,6.77
2023-02-03T01:00:00.000Z,6.85
2023-02-03T01:15:00.000Z,6.88
2023-02-03T01:30:00.000Z,6.95
2023-02-03T01:45:00.000Z,6.99
2023-02-03T02:00:00.000Z,7.01
2023-02-03T02:15:00.000Z,7.19
2023-02-03T02:30:00.000Z,7.35
2023-02-03T02:45:00.000Z,7.45
2023-02-03T03:00:00.000Z,7.51
2023-02-03T03:15:00.000Z,7.54
2023-02-03T03:30:00.000Z,7.5
2023-02-03T03:45:00.000Z,7.47
2023-02-03T04:00:00.000Z,7.51
2023-02-03T04:15:00.000Z,7.48
2023-02-03T04:30:00.000Z,7.47
2023-02-03T04:45:00.000Z,7.52
2023-02-03T05:00:00.000Z,7.51
2023-02-03T05:15:00.000Z,7.5
2023-02-03T05:30:00.000Z,7.57
2023-02-03T05:45:00.000Z,7.73
2023-02-03T06:00:00.000Z,7.14
2023-02-03T06:15:00.000Z,7.02
2023-02-03T06:30:00.000Z,6.79
2023-02-03T06:45:00.000Z,6.7
2023-02-03T07:00:00.000Z,6.81
2023-02-03T07:15:00.000Z,6.89
2023-02-03T07:30:00.000Z,6.94
2023-02-03T07:45:00.000Z,7.29
2023-02-03T08:00:00.000Z,7.76
2023-02-03T08:15:00.000Z,8.07
2023-02-03T08:30:00.000Z,8.34
2023-02-03T08:45:00.000Z,8.38
2023-02-03T09:00:00.000Z,8.54
2023-02-03T09:15:00.000Z,8.57
2023-02-03T09:30:00.000Z,8.7
2023-02-03T09:45:00.000Z,8.79
2023-02-03T10:00:00.000Z,8.88
2023-02-03T10:15:00.000Z,8.99
2023-02-03T10:30:00.000Z,9.07
2023-02-03T10:45:00.000Z,9.08
2023-02-03T11:00:00.000Z,9.13
2023-02-03T11:15:00.000Z,9.23
2023-02-03T11:30:00.000Z,9.36
2023-02-03T11:45:00.000Z,9.75
2023-02-03T12:00:00.000Z,9.56
2023-02-03T12:15:00.000Z,9.55
2023-02-03T12:30:00.000Z,9.61
2023-02-03T12:45:00.000Z,9.53
2023-02-03T13:00:00.000Z,9.39
2023-02-03T13:15:00.000Z,9.32
2023-02-03T13:30:00.000Z,9.1
2023-02-03T13:45:00.000Z,9.16
2023-02-03T14:00:00.000Z,9.14
2023-02-03T14:15:00.000Z,8.92
2023-02-03T14:30:00.000Z,8.82
2023-02-03T14:45:00.000Z,8.86
2023-02-03T15:00:00.000Z,8.92
2023-02-03T15:15:00.000Z,9.1
2023-02-03T15:30:00.000Z,9.04
2023-02-03T15:45:00.000Z,8.96
2023-02-03T16:00:00.000Z,8.85
2023-02-03T16:15:00.000Z,8.84
2023-02-03T16:30:00.000Z,8.74
2023-02-03T16:45:00.000Z,8.69
2023-02-03T17:00:00.000Z,8.68
2023-02-03T17:15:00.000Z,8.72
2023-02-03T17:45:00.000Z,8.66
2023-02-03T18:00:00.000Z,8.44
2023-02-03T18:15:00.000Z,8.33
2023-02-03T18:30:00.000Z,8.2
2023-02-03T18:45:00.000Z,8.16
2023-02-03T19:00:00.000Z,8.19
2023-02-03T19:15:00.000Z,8.2
2023-02-03T19:30:00.000Z,8.2
2023-02-03T19:45:00.000Z,8.14
2023-02-03T20:00:00.000Z,8.06
2023-02-03T20:15:00.000Z,8.05
2023-02-03T20:30:00.000Z,8.02
2023-02-03T20:45:00.000Z,7.92
2023-02-03T21:00:00.000Z,7.8
2023-02-03T21:15:00.000Z,7.65
2023-02-03T21:30:00.000Z,7.45
2023-02-03T21:45:00.000Z,7.17
2023-02-03T22:00:00.000Z,6.94
2023-02-03T22:15:00.000Z,6.97
2023-02-03T22:30:00.000Z,7.37
2023-02-03T22:45:00.000Z,7.18
2023-02-03T23:00:00.000Z,6.85
2023-02-03T23:15:00.000Z,6.7
2023-02-03T23:30:00.000Z,6.62
2023-02-03T23:45:00.000Z,6.6
